Vicksburg, Mississippi
Current Conditions -  °F | °C
As of 9:55 PM on Friday 19 Dec 2014 (Local Time) from KVKS Reporting Station
Overcast Overcast  
Wind Chill:   Ceiling: 900
Heat Index:   Visibility: 10mi
Dew Point:   Wind: 7mph
Humidity: 93%   Direction: 30°NNE
Pressure: 30.19"   Gusts: NA
Location:  32.35°N, 90.88°W
Report Text: KVKS 200355Z AUTO 03006KT 10SM BKN009 BKN015 OVC034 08/07 A3019 RMK A01
Loading
Personal Weather Stations






























Interactive Weather Map New forecast layout! Learn more

10-Day Weather Forecast

Advertisements
Track Severe Weather on mobile